createdAt,value
2019-02-09T05:04:09.139Z,99809.773
2019-02-09T05:07:37.038Z,99804.125
2019-02-09T05:11:04.915Z,99805.976
2019-02-09T05:14:32.787Z,99802.781
2019-02-09T05:18:00.659Z,99794.531
2019-02-09T05:21:28.514Z,99792.093
2019-02-09T05:24:56.388Z,99781.875
2019-02-09T05:28:24.262Z,99780.281
2019-02-09T05:31:52.115Z,99769.585
2019-02-09T05:35:19.982Z,99773.484
2019-02-09T05:38:47.855Z,99765.257
2019-02-09T05:42:15.743Z,99767.593
2019-02-09T05:45:43.599Z,99765.992
2019-02-09T05:49:11.475Z,99758.289
2019-02-09T05:52:39.358Z,99764.281
2019-02-09T05:56:07.213Z,99761.234
2019-02-09T05:59:35.090Z,99763.914
2019-02-09T06:03:02.964Z,99760.656
2019-02-09T06:06:30.809Z,99765.421
2019-02-09T06:09:58.688Z,99761.156
2019-02-09T06:13:26.553Z,99758.351
2019-02-09T06:16:54.488Z,99771.203
2019-02-09T06:20:22.348Z,99758.429
2019-02-09T06:23:50.214Z,99757.312
2019-02-09T06:27:18.077Z,99755.859
2019-02-09T06:30:46.919Z,99749.781
2019-02-09T06:34:14.798Z,99756.328
2019-02-09T06:37:42.676Z,99754.89
2019-02-09T06:41:10.530Z,99752.218
2019-02-09T06:44:38.401Z,99757.796
2019-02-09T06:48:06.268Z,99755.281
2019-02-09T06:51:34.142Z,99750.734
2019-02-09T06:55:02.001Z,99749.429
2019-02-09T06:58:29.877Z,99740.796
2019-02-09T07:01:57.739Z,99743.023
2019-02-09T07:05:25.613Z,99735.171
2019-02-09T07:08:53.486Z,99740.781
2019-02-09T07:12:22.327Z,99739.968
2019-02-09T07:15:50.203Z,99756.5
2019-02-09T07:19:18.089Z,99744.031
2019-02-09T07:22:45.939Z,99747.406
2019-02-09T07:26:13.808Z,99745.429
2019-02-09T07:29:41.670Z,99731.921
2019-02-09T07:33:09.534Z,99736.531
2019-02-09T07:36:37.385Z,99731.656
2019-02-09T07:40:05.272Z,99735.171
2019-02-09T07:43:33.142Z,99730.906
2019-02-09T07:47:01.990Z,99736.21
2019-02-09T07:50:29.889Z,99747.046
2019-02-09T07:53:57.988Z,99738.234
2019-02-09T07:57:25.979Z,99735.406
2019-02-09T08:00:53.831Z,99743.843
2019-02-09T08:04:21.708Z,99737.57
2019-02-09T08:07:49.578Z,99739.937
2019-02-09T08:11:18.424Z,99743.484
2019-02-09T08:14:46.308Z,99742.632
2019-02-09T08:18:15.981Z,99731.078
2019-02-09T08:21:46.403Z,99736.601
2019-02-09T08:25:14.273Z,99733.64
2019-02-09T08:28:42.150Z,99737.687
2019-02-09T08:32:12.923Z,99742.14
2019-02-09T08:35:41.981Z,99735.078
2019-02-09T08:39:09.929Z,99730.64
2019-02-09T08:42:37.830Z,99728.328
2019-02-09T08:46:07.658Z,99734.117
2019-02-09T08:49:35.543Z,99734.093
2019-02-09T08:53:03.421Z,99728.984
2019-02-09T08:56:33.289Z,99730.57
2019-02-09T09:00:01.169Z,99726.718
2019-02-09T09:03:30.037Z,99727.125
2019-02-09T09:06:57.908Z,99728.414
2019-02-09T09:10:26.872Z,99735.539
2019-02-09T09:13:54.743Z,99748.804
2019-02-09T09:17:22.594Z,99743.242
2019-02-09T09:20:50.470Z,99739.132
2019-02-09T09:24:19.352Z,99738.742
2019-02-09T09:27:48.528Z,99746.406
2019-02-09T09:31:16.584Z,99748.671
2019-02-09T09:34:44.526Z,99750.351
2019-02-09T09:38:12.432Z,99748.406
2019-02-09T09:41:40.378Z,99745.726
2019-02-09T09:45:09.286Z,99749.265
2019-02-09T09:48:37.141Z,99749.953
2019-02-09T09:52:05.034Z,99745.031
2019-02-09T09:55:32.938Z,99747.687
2019-02-09T09:59:00.825Z,99753.609
2019-02-09T10:02:36.212Z,99760.453
2019-02-09T10:06:00.504Z,99763.64
2019-02-09T10:09:28.370Z,99757.164
2019-02-09T10:12:56.244Z,99766.703
2019-02-09T10:16:24.118Z,99770.804
2019-02-09T10:19:52.000Z,99776.593
2019-02-09T10:23:19.897Z,99781.453
2019-02-09T10:26:48.910Z,99788.015
2019-02-09T10:30:16.848Z,99785.742
2019-02-09T10:33:44.757Z,99781.171
2019-02-09T10:37:12.678Z,99778.968
2019-02-09T10:40:40.557Z,99774.312
2019-02-09T10:44:08.423Z,99781.218
2019-02-09T10:47:36.280Z,99789.234
2019-02-09T10:51:04.161Z,99780.015
2019-02-09T10:54:33.028Z,99784.015
2019-02-09T10:58:00.916Z,99776.382
2019-02-09T12:45:22.920Z,99784.984
2019-02-09T12:48:52.773Z,99782.976
2019-02-09T12:52:22.614Z,99793.781
2019-02-09T12:55:52.467Z,99826.796
2019-02-09T12:59:22.403Z,99828.437
2019-02-09T13:02:52.380Z,99905.984
2019-02-09T13:06:22.235Z,99853.89
2019-02-09T13:09:52.119Z,99791.507
2019-02-09T13:13:21.965Z,99803.976
2019-02-09T13:16:51.862Z,99796.031
2019-02-09T13:20:22.664Z,99791.984
2019-02-09T13:23:52.513Z,99782.39
2019-02-09T13:27:22.356Z,99783.921
2019-02-09T13:30:53.210Z,99789.625
2019-02-09T13:34:23.091Z,99782.929
2019-02-09T13:37:53.039Z,99788.226
2019-02-09T13:41:23.115Z,99782.562
2019-02-09T13:44:53.117Z,99794.882
2019-02-09T13:48:23.108Z,99800.921
2019-02-09T13:51:52.952Z,99805.109
2019-02-09T13:55:22.806Z,99810.64
2019-02-09T13:58:52.702Z,99819.484
2019-02-09T14:02:22.535Z,99827.687
2019-02-09T14:05:52.393Z,99818.531
2019-02-09T14:09:22.282Z,99821.921
2019-02-09T14:12:52.119Z,99824.734
2019-02-09T14:16:21.977Z,99818.046
2019-02-09T14:19:51.825Z,99831.187
2019-02-09T14:23:21.668Z,99835.015
2019-02-09T14:26:51.517Z,99824.218
2019-02-09T14:30:21.415Z,99829.625
2019-02-09T14:33:54.909Z,99818.796
2019-02-09T14:37:24.095Z,99825.281
2019-02-09T14:40:53.967Z,99832.148
2019-02-09T14:44:23.824Z,99827.703
2019-02-09T14:47:53.689Z,99823.671
2019-02-09T14:51:23.550Z,99828.523
2019-02-09T14:54:54.392Z,99825.609
2019-02-09T14:58:24.240Z,99829.406
2019-02-09T15:01:54.098Z,99829.835
2019-02-09T15:05:23.976Z,99827.046
2019-02-09T15:08:53.827Z,99822.218
2019-02-09T15:12:23.703Z,99831.343
2019-02-09T15:15:53.551Z,99838.359
2019-02-09T15:19:23.412Z,99838.187
2019-02-09T15:22:53.271Z,99833.796
2019-02-09T15:26:23.128Z,99848.828
2019-02-09T15:29:52.988Z,99835.539
2019-02-09T15:33:22.849Z,99849
2019-02-09T15:36:52.718Z,99806.359
2019-02-09T15:40:22.586Z,99811.64
2019-02-09T15:43:52.443Z,99805.984
2019-02-09T15:47:22.322Z,99803.562
2019-02-09T15:50:52.169Z,99813.632
2019-02-09T15:54:22.028Z,99799.562
2019-02-09T15:57:51.939Z,99819.015
2019-02-09T16:01:22.804Z,99826.406
2019-02-09T16:04:52.647Z,99819.398
2019-02-09T16:08:22.522Z,99836.937
2019-02-09T16:11:52.681Z,99825.023
2019-02-09T16:15:22.550Z,99842.445
2019-02-09T16:18:53.145Z,99842.726
2019-02-09T16:22:23.064Z,99842.281
2019-02-09T16:25:52.994Z,99847.312
2019-02-09T16:29:22.864Z,99862.585
2019-02-09T16:32:53.765Z,99841
2019-02-09T16:36:23.643Z,99846.296
2019-02-09T16:39:53.498Z,99840.546
2019-02-09T16:43:23.365Z,99842.14
2019-02-09T16:46:53.246Z,99853.976
2019-02-09T16:50:23.151Z,99850.062
2019-02-09T16:53:53.009Z,99868.687
2019-02-09T16:57:22.890Z,99875.71
2019-02-09T17:00:52.774Z,99875.937
2019-02-09T17:04:22.648Z,99887.515
2019-02-09T17:07:53.547Z,99893.921
2019-02-09T17:11:23.400Z,99887.718
2019-02-09T17:14:53.367Z,99879.195
2019-02-09T17:18:23.237Z,99874.96
2019-02-09T17:21:53.082Z,99893.156
2019-02-09T17:25:22.935Z,99893.953
2019-02-09T17:28:52.805Z,99900.812
2019-02-09T17:32:22.668Z,99948.492
2019-02-09T17:35:52.595Z,99923.796
2019-02-09T17:39:22.437Z,99927.171
2019-02-09T17:42:54.306Z,99909.953
2019-02-09T17:46:24.256Z,99920.39
2019-02-09T17:49:54.099Z,99920.476
2019-02-09T17:53:23.986Z,99925.226
2019-02-09T17:56:53.867Z,99922.375
2019-02-09T18:00:23.751Z,99925.062
2019-02-09T18:03:53.725Z,99943.015
2019-02-09T18:07:23.700Z,99942.546
2019-02-09T18:10:53.720Z,99944.14
2019-02-09T18:14:23.542Z,99953.093
2019-02-09T18:17:53.424Z,99938.156
2019-02-09T18:21:23.814Z,99945.375
2019-02-09T18:24:54.018Z,99936.937
2019-02-09T18:28:24.135Z,99931.656
2019-02-09T18:31:54.010Z,99929.851
2019-02-09T18:35:23.873Z,99938.125
2019-02-09T18:38:53.736Z,99930.062
2019-02-09T18:42:23.635Z,99937.421
2019-02-09T18:45:57.726Z,99930.093
2019-02-09T18:49:26.549Z,99942
2019-02-09T18:52:56.416Z,99938.296
2019-02-09T18:56:26.311Z,99941.078
2019-02-09T18:59:56.164Z,99939.085
2019-02-09T19:03:26.018Z,99945.218
2019-02-09T19:06:55.905Z,99946.828
2019-02-09T19:10:25.831Z,99955.679
2019-02-09T19:13:55.729Z,99957.781
2019-02-09T19:17:25.684Z,99950.546
2019-02-09T19:20:55.960Z,99962.281
2019-02-09T19:24:25.817Z,99970.64
2019-02-09T19:27:56.058Z,99963.929
2019-02-09T19:31:25.926Z,99979.375
2019-02-09T19:34:55.796Z,99983.578
2019-02-09T19:38:25.708Z,99990.968
2019-02-09T19:41:56.670Z,99993.062
2019-02-09T19:45:26.751Z,100012.09
2019-02-09T19:48:56.672Z,100007.5
2019-02-09T19:52:26.532Z,100011.93
2019-02-09T19:55:56.383Z,100015.7
2019-02-09T19:59:27.239Z,100030.75
2019-02-09T20:02:57.161Z,100023.9
2019-02-09T20:06:27.136Z,100021.37
2019-02-09T20:09:58.012Z,100024.75
2019-02-09T20:13:28.169Z,100045.31
2019-02-09T20:16:58.313Z,100029.9
2019-02-09T20:20:28.205Z,100034.14
2019-02-09T20:23:58.085Z,100047.54
2019-02-09T20:27:27.973Z,100058.32
2019-02-09T20:30:57.856Z,100062.89
2019-02-09T20:34:27.772Z,100054.75
2019-02-09T20:37:58.633Z,100054.65
2019-02-09T20:41:28.498Z,100059.32
2019-02-09T20:44:58.384Z,100062.28
2019-02-09T20:48:28.262Z,100057.11
2019-02-09T20:51:58.097Z,100063.81
2019-02-09T20:55:27.951Z,100063.23
2019-02-09T20:58:57.821Z,100066.65
2019-02-09T21:02:27.672Z,100070.79
2019-02-09T21:05:57.576Z,100079.14
2019-02-09T21:09:27.509Z,100084.34
2019-02-09T21:12:57.473Z,100072.12
2019-02-09T21:16:27.312Z,100072.43
2019-02-09T21:19:58.188Z,100085.43
2019-02-09T21:23:28.047Z,100081.1
2019-02-09T21:26:57.895Z,100089.56
2019-02-09T21:30:27.802Z,100079.6
2019-02-09T21:33:57.670Z,100082.81
2019-02-09T21:37:27.569Z,100082.81
2019-02-09T21:40:57.430Z,100074.93
2019-02-09T21:44:27.285Z,100086.51
2019-02-09T21:47:57.151Z,100092.12
2019-02-09T21:51:27.015Z,100076.37
2019-02-09T21:54:56.894Z,100078.85
2019-02-09T21:58:26.764Z,100086.56
2019-02-09T22:01:56.652Z,100087.81
2019-02-09T22:05:27.507Z,100093
2019-02-09T22:08:57.367Z,100094.07
2019-02-09T22:12:27.215Z,100107.4
2019-02-09T22:15:57.078Z,100091.43
2019-02-09T22:19:26.938Z,100108.53
2019-02-09T22:22:56.789Z,100116.89
2019-02-09T22:26:26.702Z,100103.56
2019-02-09T22:29:56.631Z,100109.18
2019-02-09T22:33:26.450Z,100104.17
2019-02-09T22:36:56.422Z,100121.49
2019-02-09T22:40:26.300Z,100123.52
2019-02-09T22:43:56.166Z,100117.73
2019-02-09T22:47:26.044Z,100131.37
2019-02-09T22:50:55.901Z,100118.31
2019-02-09T22:54:25.791Z,100119.09
2019-02-09T22:57:55.648Z,100120.06
